sensor_id;sensor_type;location;lat;lon;timestamp;pressure;altitude;pressure_sealevel;temperature;humidity
56042;BME280;48756;41.374;2.066;2022-09-23T00:00:32;101263.41;;;21.33;70.65
56042;BME280;48756;41.374;2.066;2022-09-23T00:02:57;101275.69;;;20.95;72.44
56042;BME280;48756;41.374;2.066;2022-09-23T00:05:25;101275.31;;;20.84;72.42
56042;BME280;48756;41.374;2.066;2022-09-23T00:07:51;101266.97;;;20.73;73.73
56042;BME280;48756;41.374;2.066;2022-09-23T00:10:17;101276.84;;;20.69;73.51
56042;BME280;48756;41.374;2.066;2022-09-23T00:12:48;101271.13;;;20.78;73.69
56042;BME280;48756;41.374;2.066;2022-09-23T00:15:14;101263.78;;;20.85;73.42
56042;BME280;48756;41.374;2.066;2022-09-23T00:17:40;101267.66;;;21.17;71.62
56042;BME280;48756;41.374;2.066;2022-09-23T00:20:07;101269.22;;;21.21;71.51
56042;BME280;48756;41.374;2.066;2022-09-23T00:22:34;101267.16;;;21.29;71.93
56042;BME280;48756;41.374;2.066;2022-09-23T00:25:02;101255.25;;;21.18;71.57
56042;BME280;48756;41.374;2.066;2022-09-23T00:27:28;101253.91;;;20.68;73.21
56042;BME280;48756;41.374;2.066;2022-09-23T00:29:53;101254.22;;;20.81;73.68
56042;BME280;48756;41.374;2.066;2022-09-23T00:32:19;101252.19;;;20.67;73.79
56042;BME280;48756;41.374;2.066;2022-09-23T00:34:44;101249.91;;;20.60;74.45
56042;BME280;48756;41.374;2.066;2022-09-23T00:37:12;101245.97;;;20.48;75.24
56042;BME280;48756;41.374;2.066;2022-09-23T00:39:38;101253.66;;;20.32;75.85
56042;BME280;48756;41.374;2.066;2022-09-23T00:42:03;101254.78;;;20.27;75.95
56042;BME280;48756;41.374;2.066;2022-09-23T00:44:58;101256.94;;;20.17;76.66
56042;BME280;48756;41.374;2.066;2022-09-23T00:52:42;101235.91;;;20.34;75.44
56042;BME280;48756;41.374;2.066;2022-09-23T00:55:10;101233.13;;;20.59;75.28
56042;BME280;48756;41.374;2.066;2022-09-23T00:57:39;101225.66;;;20.69;74.12
56042;BME280;48756;41.374;2.066;2022-09-23T01:00:07;101220.81;;;20.78;73.99
56042;BME280;48756;41.374;2.066;2022-09-23T01:02:33;101220.47;;;20.86;73.56
56042;BME280;48756;41.374;2.066;2022-09-23T01:05:00;101235.44;;;20.87;73.58
56042;BME280;48756;41.374;2.066;2022-09-23T01:07:28;101228.72;;;20.99;73.43
56042;BME280;48756;41.374;2.066;2022-09-23T01:09:55;101230.28;;;20.84;73.79
56042;BME280;48756;41.374;2.066;2022-09-23T01:15:58;101232.88;;;20.23;76.16
56042;BME280;48756;41.374;2.066;2022-09-23T01:26:53;101220.16;;;20.53;75.05
56042;BME280;48756;41.374;2.066;2022-09-23T01:35:08;101203.28;;;20.34;76.53
56042;BME280;48756;41.374;2.066;2022-09-23T01:37:53;101198.69;;;20.39;75.42
56042;BME280;48756;41.374;2.066;2022-09-23T01:43:30;101193.91;;;20.27;75.56
56042;BME280;48756;41.374;2.066;2022-09-23T01:46:02;101199.13;;;20.28;75.57
56042;BME280;48756;41.374;2.066;2022-09-23T01:48:38;101200.31;;;20.43;75.25
56042;BME280;48756;41.374;2.066;2022-09-23T01:51:24;101199.13;;;20.28;76.44
56042;BME280;48756;41.374;2.066;2022-09-23T01:56:43;101209.97;;;20.22;76.48
56042;BME280;48756;41.374;2.066;2022-09-23T01:59:17;101216.47;;;20.35;76.36
56042;BME280;48756;41.374;2.066;2022-09-23T02:02:16;101210.38;;;20.33;75.59
56042;BME280;48756;41.374;2.066;2022-09-23T02:04:51;101212.56;;;20.24;75.22
56042;BME280;48756;41.374;2.066;2022-09-23T02:07:32;101211.78;;;20.00;76.68
56042;BME280;48756;41.374;2.066;2022-09-23T02:10:18;101221.13;;;20.08;76.65
56042;BME280;48756;41.374;2.066;2022-09-23T02:12:48;101209.91;;;20.24;77.07
56042;BME280;48756;41.374;2.066;2022-09-23T02:15:31;101211.84;;;20.20;75.94
56042;BME280;48756;41.374;2.066;2022-09-23T02:18:15;101207.16;;;20.05;77.23
56042;BME280;48756;41.374;2.066;2022-09-23T02:20:42;101209.19;;;20.20;76.46
56042;BME280;48756;41.374;2.066;2022-09-23T02:23:37;101207.41;;;20.21;76.55
56042;BME280;48756;41.374;2.066;2022-09-23T02:26:13;101205.97;;;20.12;75.87
56042;BME280;48756;41.374;2.066;2022-09-23T02:28:49;101198.59;;;20.20;76.44
56042;BME280;48756;41.374;2.066;2022-09-23T02:37:01;101202.03;;;20.22;75.65
56042;BME280;48756;41.374;2.066;2022-09-23T02:39:38;101198.81;;;19.94;76.96
56042;BME280;48756;41.374;2.066;2022-09-23T02:42:12;101207.66;;;20.14;75.85
56042;BME280;48756;41.374;2.066;2022-09-23T02:44:41;101206.91;;;20.11;75.57
56042;BME280;48756;41.374;2.066;2022-09-23T02:47:07;101199.13;;;19.86;77.21
56042;BME280;48756;41.374;2.066;2022-09-23T02:49:33;101203.25;;;19.71;78.55
56042;BME280;48756;41.374;2.066;2022-09-23T02:52:02;101209.56;;;19.89;77.29
56042;BME280;48756;41.374;2.066;2022-09-23T02:54:32;101193.34;;;19.98;76.79
56042;BME280;48756;41.374;2.066;2022-09-23T02:57:03;101200.69;;;19.92;78.23
56042;BME280;48756;41.374;2.066;2022-09-23T02:59:31;101201.09;;;19.81;77.63
56042;BME280;48756;41.374;2.066;2022-09-23T03:05:28;101197.28;;;19.88;78.46
56042;BME280;48756;41.374;2.066;2022-09-23T03:13:29;101196.53;;;20.06;76.90
56042;BME280;48756;41.374;2.066;2022-09-23T03:18:56;101202.00;;;20.02;76.17
56042;BME280;48756;41.374;2.066;2022-09-23T03:21:28;101202.81;;;19.82;77.05
56042;BME280;48756;41.374;2.066;2022-09-23T03:23:59;101205.63;;;19.55;78.50
56042;BME280;48756;41.374;2.066;2022-09-23T03:26:30;101209.81;;;19.38;79.47
56042;BME280;48756;41.374;2.066;2022-09-23T03:29:01;101208.94;;;19.37;79.22
56042;BME280;48756;41.374;2.066;2022-09-23T03:31:32;101209.88;;;19.36;80.11
56042;BME280;48756;41.374;2.066;2022-09-23T03:34:05;101205.91;;;19.48;79.25
56042;BME280;48756;41.374;2.066;2022-09-23T03:36:37;101206.19;;;19.64;78.95
56042;BME280;48756;41.374;2.066;2022-09-23T03:42:09;101198.66;;;19.53;79.11
56042;BME280;48756;41.374;2.066;2022-09-23T03:44:47;101197.13;;;19.47;79.35
56042;BME280;48756;41.374;2.066;2022-09-23T03:47:14;101200.53;;;19.27;80.23
56042;BME280;48756;41.374;2.066;2022-09-23T03:49:45;101204.03;;;19.28;80.50
56042;BME280;48756;41.374;2.066;2022-09-23T03:52:13;101197.16;;;19.22;80.44
56042;BME280;48756;41.374;2.066;2022-09-23T03:54:39;101190.56;;;19.34;80.26
56042;BME280;48756;41.374;2.066;2022-09-23T03:57:05;101198.69;;;19.30;80.08
56042;BME280;48756;41.374;2.066;2022-09-23T03:59:34;101197.03;;;19.27;80.83
56042;BME280;48756;41.374;2.066;2022-09-23T04:02:00;101196.91;;;19.30;79.84
56042;BME280;48756;41.374;2.066;2022-09-23T04:04:26;101198.19;;;19.42;80.07
56042;BME280;48756;41.374;2.066;2022-09-23T04:06:53;101198.19;;;19.65;78.81
56042;BME280;48756;41.374;2.066;2022-09-23T04:09:19;101204.88;;;19.52;79.17
56042;BME280;48756;41.374;2.066;2022-09-23T04:11:44;101196.59;;;19.83;78.41
56042;BME280;48756;41.374;2.066;2022-09-23T04:14:10;101198.78;;;19.73;77.55
56042;BME280;48756;41.374;2.066;2022-09-23T04:16:36;101201.75;;;19.64;78.20
56042;BME280;48756;41.374;2.066;2022-09-23T04:19:02;101206.13;;;19.65;79.03
56042;BME280;48756;41.374;2.066;2022-09-23T04:21:27;101212.22;;;19.67;78.40
56042;BME280;48756;41.374;2.066;2022-09-23T04:23:55;101201.81;;;19.84;77.72
56042;BME280;48756;41.374;2.066;2022-09-23T04:26:21;101207.75;;;19.69;77.84
56042;BME280;48756;41.374;2.066;2022-09-23T04:28:46;101218.06;;;19.75;78.03
56042;BME280;48756;41.374;2.066;2022-09-23T04:31:11;101220.78;;;19.50;78.37
56042;BME280;48756;41.374;2.066;2022-09-23T04:33:37;101212.91;;;19.49;79.58
56042;BME280;48756;41.374;2.066;2022-09-23T04:36:03;101219.16;;;19.24;80.18
56042;BME280;48756;41.374;2.066;2022-09-23T04:38:29;101220.81;;;19.27;79.89
56042;BME280;48756;41.374;2.066;2022-09-23T04:40:54;101227.16;;;19.21;80.09
56042;BME280;48756;41.374;2.066;2022-09-23T04:43:20;101215.47;;;19.05;80.54
56042;BME280;48756;41.374;2.066;2022-09-23T04:45:59;101225.22;;;19.03;81.15
56042;BME280;48756;41.374;2.066;2022-09-23T04:48:26;101218.06;;;18.82;81.87
56042;BME280;48756;41.374;2.066;2022-09-23T04:50:51;101226.91;;;18.81;82.65
56042;BME280;48756;41.374;2.066;2022-09-23T04:53:17;101221.19;;;18.68;82.42
56042;BME280;48756;41.374;2.066;2022-09-23T04:55:43;101223.22;;;18.60;83.23
56042;BME280;48756;41.374;2.066;2022-09-23T04:58:09;101225.59;;;18.67;83.35
56042;BME280;48756;41.374;2.066;2022-09-23T05:00:36;101228.81;;;18.76;82.45
56042;BME280;48756;41.374;2.066;2022-09-23T05:03:02;101226.69;;;18.87;81.22
56042;BME280;48756;41.374;2.066;2022-09-23T05:05:28;101220.38;;;18.91;81.71
56042;BME280;48756;41.374;2.066;2022-09-23T05:07:54;101220.84;;;18.77;82.29
56042;BME280;48756;41.374;2.066;2022-09-23T05:10:20;101225.75;;;18.88;81.50
56042;BME280;48756;41.374;2.066;2022-09-23T05:12:46;101224.69;;;18.69;82.69
56042;BME280;48756;41.374;2.066;2022-09-23T05:15:11;101224.63;;;18.70;81.75
56042;BME280;48756;41.374;2.066;2022-09-23T05:17:43;101216.25;;;18.84;81.34
56042;BME280;48756;41.374;2.066;2022-09-23T05:20:09;101208.59;;;19.00;79.88
56042;BME280;48756;41.374;2.066;2022-09-23T05:22:35;101214.66;;;19.03;80.07
56042;BME280;48756;41.374;2.066;2022-09-23T05:25:01;101207.47;;;19.07;79.29
56042;BME280;48756;41.374;2.066;2022-09-23T05:27:27;101211.16;;;19.26;79.10
56042;BME280;48756;41.374;2.066;2022-09-23T05:29:52;101212.47;;;19.14;79.09
56042;BME280;48756;41.374;2.066;2022-09-23T05:32:18;101205.00;;;19.25;79.33
56042;BME280;48756;41.374;2.066;2022-09-23T05:34:43;101210.63;;;19.40;78.63
56042;BME280;48756;41.374;2.066;2022-09-23T05:37:08;101207.41;;;19.55;76.83
56042;BME280;48756;41.374;2.066;2022-09-23T05:39:34;101205.72;;;19.52;77.79
56042;BME280;48756;41.374;2.066;2022-09-23T05:42:00;101209.00;;;19.59;77.09
56042;BME280;48756;41.374;2.066;2022-09-23T05:44:26;101202.75;;;19.62;76.53
56042;BME280;48756;41.374;2.066;2022-09-23T05:46:51;101201.34;;;19.75;76.50
56042;BME280;48756;41.374;2.066;2022-09-23T05:49:16;101212.91;;;19.72;76.53
56042;BME280;48756;41.374;2.066;2022-09-23T05:51:42;101211.84;;;19.31;78.64
56042;BME280;48756;41.374;2.066;2022-09-23T05:54:08;101205.69;;;19.07;78.75
56042;BME280;48756;41.374;2.066;2022-09-23T05:56:33;101208.59;;;19.00;79.12
56042;BME280;48756;41.374;2.066;2022-09-23T05:59:00;101211.16;;;18.78;81.22
56042;BME280;48756;41.374;2.066;2022-09-23T06:01:28;101207.66;;;18.77;81.54
56042;BME280;48756;41.374;2.066;2022-09-23T06:03:57;101203.75;;;18.64;81.35
56042;BME280;48756;41.374;2.066;2022-09-23T06:06:31;101209.09;;;18.61;81.41
56042;BME280;48756;41.374;2.066;2022-09-23T06:08:58;101211.38;;;18.72;80.28
56042;BME280;48756;41.374;2.066;2022-09-23T06:11:24;101211.13;;;18.79;81.67
56042;BME280;48756;41.374;2.066;2022-09-23T06:13:55;101213.53;;;18.85;81.01
56042;BME280;48756;41.374;2.066;2022-09-23T06:16:31;101220.22;;;18.71;81.40
56042;BME280;48756;41.374;2.066;2022-09-23T06:18:57;101217.19;;;18.56;81.99
56042;BME280;48756;41.374;2.066;2022-09-23T06:21:24;101226.97;;;18.53;82.48
56042;BME280;48756;41.374;2.066;2022-09-23T06:23:50;101217.84;;;18.63;81.10
56042;BME280;48756;41.374;2.066;2022-09-23T06:26:15;101222.03;;;18.93;80.24
56042;BME280;48756;41.374;2.066;2022-09-23T06:28:41;101223.19;;;18.86;80.16
56042;BME280;48756;41.374;2.066;2022-09-23T06:31:14;101225.72;;;18.89;80.48
56042;BME280;48756;41.374;2.066;2022-09-23T06:33:44;101228.41;;;18.88;80.23
56042;BME280;48756;41.374;2.066;2022-09-23T06:36:11;101237.75;;;18.96;80.30
56042;BME280;48756;41.374;2.066;2022-09-23T06:38:39;101240.28;;;19.00;80.35
56042;BME280;48756;41.374;2.066;2022-09-23T06:41:05;101238.31;;;19.30;78.57
56042;BME280;48756;41.374;2.066;2022-09-23T06:43:31;101234.75;;;19.31;77.87
56042;BME280;48756;41.374;2.066;2022-09-23T06:45:57;101232.72;;;19.37;78.43
56042;BME280;48756;41.374;2.066;2022-09-23T06:48:24;101236.53;;;19.77;76.63
56042;BME280;48756;41.374;2.066;2022-09-23T06:50:50;101236.13;;;19.64;77.12
56042;BME280;48756;41.374;2.066;2022-09-23T06:53:19;101236.53;;;19.77;77.14
56042;BME280;48756;41.374;2.066;2022-09-23T06:55:48;101236.28;;;19.83;76.04
56042;BME280;48756;41.374;2.066;2022-09-23T06:58:14;101238.72;;;19.87;76.58
56042;BME280;48756;41.374;2.066;2022-09-23T07:00:39;101231.50;;;20.13;76.09
56042;BME280;48756;41.374;2.066;2022-09-23T07:03:06;101232.00;;;20.23;74.47
56042;BME280;48756;41.374;2.066;2022-09-23T07:05:34;101236.41;;;20.02;75.60
56042;BME280;48756;41.374;2.066;2022-09-23T07:08:06;101233.69;;;20.03;75.42
56042;BME280;48756;41.374;2.066;2022-09-23T07:10:34;101239.50;;;20.11;75.71
56042;BME280;48756;41.374;2.066;2022-09-23T07:13:02;101236.50;;;20.21;75.41
56042;BME280;48756;41.374;2.066;2022-09-23T07:15:28;101232.72;;;20.48;74.69
56042;BME280;48756;41.374;2.066;2022-09-23T07:17:54;101237.38;;;20.63;74.44
56042;BME280;48756;41.374;2.066;2022-09-23T07:20:19;101232.16;;;20.82;72.61
56042;BME280;48756;41.374;2.066;2022-09-23T07:22:51;101230.16;;;20.67;72.54
56042;BME280;48756;41.374;2.066;2022-09-23T07:25:20;101236.75;;;20.77;73.75
56042;BME280;48756;41.374;2.066;2022-09-23T07:27:47;101232.78;;;21.07;71.66
56042;BME280;48756;41.374;2.066;2022-09-23T07:30:13;101239.00;;;21.06;71.45
56042;BME280;48756;41.374;2.066;2022-09-23T07:32:40;101234.69;;;21.23;70.74
56042;BME280;48756;41.374;2.066;2022-09-23T07:35:07;101234.19;;;21.15;71.52
56042;BME280;48756;41.374;2.066;2022-09-23T07:37:34;101236.78;;;21.16;71.07
56042;BME280;48756;41.374;2.066;2022-09-23T07:40:00;101227.97;;;21.36;70.76
56042;BME280;48756;41.374;2.066;2022-09-23T07:42:26;101237.34;;;21.62;69.20
56042;BME280;48756;41.374;2.066;2022-09-23T07:44:52;101245.13;;;21.65;69.65
56042;BME280;48756;41.374;2.066;2022-09-23T07:47:19;101245.59;;;21.75;68.70
56042;BME280;48756;41.374;2.066;2022-09-23T07:49:45;101247.31;;;21.57;69.22
56042;BME280;48756;41.374;2.066;2022-09-23T07:52:10;101240.06;;;21.60;69.09
56042;BME280;48756;41.374;2.066;2022-09-23T07:54:39;101246.38;;;21.77;68.73
56042;BME280;48756;41.374;2.066;2022-09-23T07:57:04;101250.97;;;21.73;69.16
56042;BME280;48756;41.374;2.066;2022-09-23T07:59:30;101251.00;;;22.09;67.33
56042;BME280;48756;41.374;2.066;2022-09-23T08:01:56;101252.03;;;22.24;67.10
56042;BME280;48756;41.374;2.066;2022-09-23T08:04:39;101260.41;;;22.34;66.79
56042;BME280;48756;41.374;2.066;2022-09-23T08:07:05;101251.81;;;22.63;65.39
56042;BME280;48756;41.374;2.066;2022-09-23T08:12:19;101252.16;;;22.91;63.61
56042;BME280;48756;41.374;2.066;2022-09-23T08:14:48;101252.50;;;23.01;63.29
56042;BME280;48756;41.374;2.066;2022-09-23T08:17:13;101258.16;;;23.44;62.07
56042;BME280;48756;41.374;2.066;2022-09-23T08:19:39;101256.84;;;23.68;61.78
56042;BME280;48756;41.374;2.066;2022-09-23T08:22:04;101260.44;;;23.67;61.32
56042;BME280;48756;41.374;2.066;2022-09-23T08:24:30;101257.81;;;23.34;62.62
56042;BME280;48756;41.374;2.066;2022-09-23T08:26:59;101260.38;;;23.85;61.39
56042;BME280;48756;41.374;2.066;2022-09-23T08:29:25;101250.38;;;23.41;62.45
56042;BME280;48756;41.374;2.066;2022-09-23T08:31:50;101261.91;;;23.73;61.74
56042;BME280;48756;41.374;2.066;2022-09-23T08:34:18;101261.44;;;23.49;62.24
56042;BME280;48756;41.374;2.066;2022-09-23T08:36:44;101266.66;;;23.99;61.41
56042;BME280;48756;41.374;2.066;2022-09-23T08:39:17;101271.06;;;24.46;59.89
56042;BME280;48756;41.374;2.066;2022-09-23T08:44:29;101266.34;;;24.35;60.51
56042;BME280;48756;41.374;2.066;2022-09-23T08:47:20;101269.00;;;24.35;61.71
56042;BME280;48756;41.374;2.066;2022-09-23T08:49:56;101265.09;;;24.57;61.03
56042;BME280;48756;41.374;2.066;2022-09-23T08:52:57;101268.78;;;24.98;61.24
56042;BME280;48756;41.374;2.066;2022-09-23T08:55:32;101271.19;;;25.31;58.92
56042;BME280;48756;41.374;2.066;2022-09-23T09:03:48;101261.72;;;25.83;57.25
56042;BME280;48756;41.374;2.066;2022-09-23T09:08:53;101258.66;;;26.16;55.90
56042;BME280;48756;41.374;2.066;2022-09-23T09:11:20;101265.84;;;26.01;57.12
56042;BME280;48756;41.374;2.066;2022-09-23T09:16:55;101254.78;;;26.34;57.23
56042;BME280;48756;41.374;2.066;2022-09-23T09:22:46;101245.88;;;26.34;56.10
56042;BME280;48756;41.374;2.066;2022-09-23T09:25:36;101246.88;;;26.45;56.04
56042;BME280;48756;41.374;2.066;2022-09-23T09:28:38;101251.34;;;26.32;56.22
56042;BME280;48756;41.374;2.066;2022-09-23T09:33:57;101238.59;;;26.50;56.56
56042;BME280;48756;41.374;2.066;2022-09-23T09:39:17;101236.91;;;26.74;56.29
56042;BME280;48756;41.374;2.066;2022-09-23T09:41:47;101237.53;;;26.91;56.06
56042;BME280;48756;41.374;2.066;2022-09-23T09:44:47;101239.44;;;26.23;57.17
56042;BME280;48756;41.374;2.066;2022-09-23T09:47:41;101248.13;;;26.00;59.76
56042;BME280;48756;41.374;2.066;2022-09-23T09:50:16;101248.97;;;25.74;60.85
56042;BME280;48756;41.374;2.066;2022-09-23T09:52:49;101237.31;;;25.75;61.24
56042;BME280;48756;41.374;2.066;2022-09-23T09:55:26;101246.16;;;25.89;61.31
56042;BME280;48756;41.374;2.066;2022-09-23T09:58:00;101238.34;;;26.13;60.40
56042;BME280;48756;41.374;2.066;2022-09-23T10:08:24;101245.00;;;25.93;60.81
56042;BME280;48756;41.374;2.066;2022-09-23T10:13:29;101235.72;;;25.99;60.32
56042;BME280;48756;41.374;2.066;2022-09-23T10:15:56;101231.97;;;26.68;60.95
56042;BME280;48756;41.374;2.066;2022-09-23T10:21:24;101226.19;;;27.25;56.62
56042;BME280;48756;41.374;2.066;2022-09-23T10:23:52;101221.75;;;27.00;58.27
56042;BME280;48756;41.374;2.066;2022-09-23T10:26:50;101222.22;;;27.43;56.44
56042;BME280;48756;41.374;2.066;2022-09-23T10:37:38;101229.28;;;27.44;56.56
56042;BME280;48756;41.374;2.066;2022-09-23T10:40:42;101229.53;;;27.16;56.79
56042;BME280;48756;41.374;2.066;2022-09-23T10:46:19;101221.75;;;27.00;57.27
56042;BME280;48756;41.374;2.066;2022-09-23T11:00:45;101208.59;;;28.07;54.78
56042;BME280;48756;41.374;2.066;2022-09-23T11:19:57;101204.72;;;27.63;56.33
56042;BME280;48756;41.374;2.066;2022-09-23T11:22:51;101199.31;;;27.76;55.31
56042;BME280;48756;41.374;2.066;2022-09-23T11:36:25;101200.88;;;27.05;56.38
56042;BME280;48756;41.374;2.066;2022-09-23T11:39:00;101196.47;;;26.79;56.77
56042;BME280;48756;41.374;2.066;2022-09-23T11:41:29;101189.84;;;26.59;57.46
56042;BME280;48756;41.374;2.066;2022-09-23T11:44:19;101184.66;;;27.32;55.21
56042;BME280;48756;41.374;2.066;2022-09-23T11:46:53;101178.16;;;26.98;56.76
56042;BME280;48756;41.374;2.066;2022-09-23T11:49:39;101180.50;;;26.90;56.27
56042;BME280;48756;41.374;2.066;2022-09-23T11:52:16;101177.63;;;27.55;54.83
56042;BME280;48756;41.374;2.066;2022-09-23T11:57:35;101172.59;;;27.63;54.04
56042;BME280;48756;41.374;2.066;2022-09-23T12:00:05;101165.59;;;28.32;51.60
56042;BME280;48756;41.374;2.066;2022-09-23T12:02:51;101148.25;;;28.94;48.86
56042;BME280;48756;41.374;2.066;2022-09-23T12:05:23;101156.34;;;29.37;48.56
56042;BME280;48756;41.374;2.066;2022-09-23T12:07:58;101155.06;;;29.20;48.29
56042;BME280;48756;41.374;2.066;2022-09-23T12:21:19;101134.28;;;28.33;50.88
56042;BME280;48756;41.374;2.066;2022-09-23T12:26:18;101141.06;;;27.43;53.08
56042;BME280;48756;41.374;2.066;2022-09-23T12:28:48;101128.22;;;27.35;53.85
56042;BME280;48756;41.374;2.066;2022-09-23T12:31:20;101121.38;;;28.03;52.17
56042;BME280;48756;41.374;2.066;2022-09-23T12:33:48;101117.84;;;28.49;51.81
56042;BME280;48756;41.374;2.066;2022-09-23T12:36:15;101116.03;;;28.60;50.54
56042;BME280;48756;41.374;2.066;2022-09-23T12:38:53;101124.66;;;28.42;50.43
56042;BME280;48756;41.374;2.066;2022-09-23T12:47:35;101107.06;;;28.15;52.75
56042;BME280;48756;41.374;2.066;2022-09-23T12:49:56;101098.09;;;28.39;50.77
56042;BME280;48756;41.374;2.066;2022-09-23T12:52:25;101103.59;;;28.59;50.75
56042;BME280;48756;41.374;2.066;2022-09-23T12:54:54;101102.88;;;28.68;49.50
56042;BME280;48756;41.374;2.066;2022-09-23T13:00:22;101092.31;;;27.74;53.39
56042;BME280;48756;41.374;2.066;2022-09-23T13:05:41;101089.19;;;28.27;51.55
56042;BME280;48756;41.374;2.066;2022-09-23T13:08:27;101078.31;;;27.71;52.67
56042;BME280;48756;41.374;2.066;2022-09-23T13:10:56;101084.50;;;28.06;52.76
56042;BME280;48756;41.374;2.066;2022-09-23T13:13:31;101079.00;;;28.54;50.65
56042;BME280;48756;41.374;2.066;2022-09-23T13:18:52;101080.31;;;28.71;49.57
56042;BME280;48756;41.374;2.066;2022-09-23T13:26:51;101059.50;;;28.75;48.35
56042;BME280;48756;41.374;2.066;2022-09-23T13:29:25;101054.25;;;28.62;48.68
56042;BME280;48756;41.374;2.066;2022-09-23T13:31:53;101048.34;;;28.12;48.75
56042;BME280;48756;41.374;2.066;2022-09-23T13:34:23;101054.59;;;27.77;50.63
56042;BME280;48756;41.374;2.066;2022-09-23T13:36:50;101062.34;;;28.16;50.11
56042;BME280;48756;41.374;2.066;2022-09-23T13:39:22;101044.34;;;28.29;48.59
56042;BME280;48756;41.374;2.066;2022-09-23T13:41:51;101053.47;;;27.69;50.16
56042;BME280;48756;41.374;2.066;2022-09-23T13:44:19;101038.28;;;28.38;48.62
56042;BME280;48756;41.374;2.066;2022-09-23T13:46:48;101041.47;;;28.54;49.02
56042;BME280;48756;41.374;2.066;2022-09-23T13:49:44;101035.44;;;28.73;47.81
56042;BME280;48756;41.374;2.066;2022-09-23T13:52:29;101035.91;;;28.00;49.76
56042;BME280;48756;41.374;2.066;2022-09-23T13:54:56;101028.53;;;28.59;49.13
56042;BME280;48756;41.374;2.066;2022-09-23T13:57:33;101021.97;;;28.41;50.46
56042;BME280;48756;41.374;2.066;2022-09-23T14:00:18;101010.41;;;28.29;50.03
56042;BME280;48756;41.374;2.066;2022-09-23T14:02:45;101009.91;;;28.58;49.22
56042;BME280;48756;41.374;2.066;2022-09-23T14:05:34;100998.31;;;28.46;49.52
56042;BME280;48756;41.374;2.066;2022-09-23T14:08:01;101002.06;;;28.21;50.07
56042;BME280;48756;41.374;2.066;2022-09-23T14:10:26;100994.41;;;27.35;51.39
56042;BME280;48756;41.374;2.066;2022-09-23T14:12:53;100997.63;;;27.40;52.49
56042;BME280;48756;41.374;2.066;2022-09-23T14:15:21;101001.78;;;26.97;53.10
56042;BME280;48756;41.374;2.066;2022-09-23T14:17:50;101006.94;;;26.87;54.34
56042;BME280;48756;41.374;2.066;2022-09-23T14:20:18;101007.28;;;26.70;53.73
56042;BME280;48756;41.374;2.066;2022-09-23T14:22:45;101006.41;;;27.19;53.10
56042;BME280;48756;41.374;2.066;2022-09-23T14:25:16;100999.97;;;26.84;53.47
56042;BME280;48756;41.374;2.066;2022-09-23T14:27:43;100999.47;;;26.79;53.38
56042;BME280;48756;41.374;2.066;2022-09-23T14:30:17;100994.47;;;26.75;55.13
56042;BME280;48756;41.374;2.066;2022-09-23T14:32:43;100992.53;;;26.77;54.46
56042;BME280;48756;41.374;2.066;2022-09-23T14:35:17;100985.13;;;26.80;54.86
56042;BME280;48756;41.374;2.066;2022-09-23T14:37:44;100982.72;;;26.65;54.94
56042;BME280;48756;41.374;2.066;2022-09-23T14:40:54;100976.66;;;26.86;53.67
56042;BME280;48756;41.374;2.066;2022-09-23T14:44:02;100973.50;;;27.05;53.92
56042;BME280;48756;41.374;2.066;2022-09-23T14:46:34;100968.09;;;26.94;54.58
56042;BME280;48756;41.374;2.066;2022-09-23T14:49:04;100965.00;;;26.88;54.32
56042;BME280;48756;41.374;2.066;2022-09-23T14:51:41;100963.31;;;27.10;55.50
56042;BME280;48756;41.374;2.066;2022-09-23T14:56:59;100965.25;;;27.08;53.72
56042;BME280;48756;41.374;2.066;2022-09-23T14:59:36;100968.03;;;26.70;54.32
56042;BME280;48756;41.374;2.066;2022-09-23T15:02:26;100954.44;;;27.10;54.23
56042;BME280;48756;41.374;2.066;2022-09-23T15:05:19;100953.03;;;26.57;56.03
56042;BME280;48756;41.374;2.066;2022-09-23T15:07:50;100951.00;;;26.84;55.24
56042;BME280;48756;41.374;2.066;2022-09-23T15:10:41;100952.44;;;26.28;56.23
56042;BME280;48756;41.374;2.066;2022-09-23T15:13:13;100948.69;;;26.43;56.14
56042;BME280;48756;41.374;2.066;2022-09-23T15:15:41;100936.16;;;26.56;56.01
56042;BME280;48756;41.374;2.066;2022-09-23T15:18:15;100932.66;;;26.67;56.40
56042;BME280;48756;41.374;2.066;2022-09-23T15:20:58;100927.19;;;26.44;56.35
56042;BME280;48756;41.374;2.066;2022-09-23T15:26:04;100928.91;;;26.33;56.78
56042;BME280;48756;41.374;2.066;2022-09-23T15:28:30;100923.16;;;26.39;56.91
56042;BME280;48756;41.374;2.066;2022-09-23T15:30:56;100914.31;;;26.62;55.89
56042;BME280;48756;41.374;2.066;2022-09-23T15:33:21;100909.34;;;26.69;56.16
56042;BME280;48756;41.374;2.066;2022-09-23T15:35:52;100910.66;;;26.63;56.13
56042;BME280;48756;41.374;2.066;2022-09-23T15:38:19;100909.31;;;26.58;57.59
56042;BME280;48756;41.374;2.066;2022-09-23T15:40:45;100913.75;;;26.33;57.42
56042;BME280;48756;41.374;2.066;2022-09-23T15:43:17;100926.03;;;26.23;58.51
56042;BME280;48756;41.374;2.066;2022-09-23T15:45:50;100924.13;;;26.38;57.32
56042;BME280;48756;41.374;2.066;2022-09-23T15:48:23;100923.88;;;26.41;57.81
56042;BME280;48756;41.374;2.066;2022-09-23T15:50:50;100924.00;;;26.39;57.92
56042;BME280;48756;41.374;2.066;2022-09-23T15:53:26;100917.91;;;26.50;57.41
56042;BME280;48756;41.374;2.066;2022-09-23T15:55:52;100925.19;;;26.35;58.07
56042;BME280;48756;41.374;2.066;2022-09-23T15:58:19;100910.38;;;26.06;59.37
56042;BME280;48756;41.374;2.066;2022-09-23T16:00:49;100897.78;;;26.08;59.78
56042;BME280;48756;41.374;2.066;2022-09-23T16:03:20;100897.34;;;26.01;59.48
56042;BME280;48756;41.374;2.066;2022-09-23T16:05:48;100897.94;;;26.30;58.13
56042;BME280;48756;41.374;2.066;2022-09-23T16:08:14;100917.09;;;25.99;59.43
56042;BME280;48756;41.374;2.066;2022-09-23T16:10:41;100918.50;;;26.04;60.63